sensor_id;sensor_type;location;lat;lon;timestamp;temperature;humidity
71668;DHT22;59504;54.806;9.640;2023-02-21T00:01:30;7.10;70.30
71668;DHT22;59504;54.806;9.640;2023-02-21T00:03:50;7.10;70.30
71668;DHT22;59504;54.806;9.640;2023-02-21T00:06:09;7.10;70.50
71668;DHT22;59504;54.806;9.640;2023-02-21T00:08:29;7.00;70.60
71668;DHT22;59504;54.806;9.640;2023-02-21T00:10:48;7.10;70.80
71668;DHT22;59504;54.806;9.640;2023-02-21T00:13:07;7.10;70.80
71668;DHT22;59504;54.806;9.640;2023-02-21T00:15:27;7.10;70.80
71668;DHT22;59504;54.806;9.640;2023-02-21T00:17:47;6.90;70.80
71668;DHT22;59504;54.806;9.640;2023-02-21T00:20:06;6.90;71.00
71668;DHT22;59504;54.806;9.640;2023-02-21T00:22:26;6.90;71.10
71668;DHT22;59504;54.806;9.640;2023-02-21T00:24:45;6.90;71.10
71668;DHT22;59504;54.806;9.640;2023-02-21T00:27:05;6.90;71.20
71668;DHT22;59504;54.806;9.640;2023-02-21T00:29:25;6.80;71.30
71668;DHT22;59504;54.806;9.640;2023-02-21T00:31:44;6.90;71.40
71668;DHT22;59504;54.806;9.640;2023-02-21T00:34:03;6.80;71.40
71668;DHT22;59504;54.806;9.640;2023-02-21T00:36:23;6.80;72.30
71668;DHT22;59504;54.806;9.640;2023-02-21T00:38:42;6.70;71.50
71668;DHT22;59504;54.806;9.640;2023-02-21T00:41:02;6.80;71.60
71668;DHT22;59504;54.806;9.640;2023-02-21T00:43:35;6.80;71.70
71668;DHT22;59504;54.806;9.640;2023-02-21T00:45:57;6.70;71.90
71668;DHT22;59504;54.806;9.640;2023-02-21T00:48:20;6.60;71.90
71668;DHT22;59504;54.806;9.640;2023-02-21T00:50:39;6.60;72.10
71668;DHT22;59504;54.806;9.640;2023-02-21T00:52:59;6.60;72.30
71668;DHT22;59504;54.806;9.640;2023-02-21T00:55:19;6.70;72.50
71668;DHT22;59504;54.806;9.640;2023-02-21T00:57:38;6.60;72.50
71668;DHT22;59504;54.806;9.640;2023-02-21T00:59:58;6.70;72.50
71668;DHT22;59504;54.806;9.640;2023-02-21T01:02:17;6.70;72.60
71668;DHT22;59504;54.806;9.640;2023-02-21T01:04:37;6.60;72.50
71668;DHT22;59504;54.806;9.640;2023-02-21T01:06:56;6.60;72.50
71668;DHT22;59504;54.806;9.640;2023-02-21T01:09:15;6.60;72.50
71668;DHT22;59504;54.806;9.640;2023-02-21T01:11:35;6.60;72.50
71668;DHT22;59504;54.806;9.640;2023-02-21T01:13:54;6.50;72.40
71668;DHT22;59504;54.806;9.640;2023-02-21T01:16:13;6.60;72.40
71668;DHT22;59504;54.806;9.640;2023-02-21T01:18:33;6.50;72.30
71668;DHT22;59504;54.806;9.640;2023-02-21T01:20:52;6.60;72.30
71668;DHT22;59504;54.806;9.640;2023-02-21T01:23:11;6.60;72.30
71668;DHT22;59504;54.806;9.640;2023-02-21T01:25:31;6.50;72.40
71668;DHT22;59504;54.806;9.640;2023-02-21T01:27:53;6.60;72.40
71668;DHT22;59504;54.806;9.640;2023-02-21T01:30:15;6.50;72.30
71668;DHT22;59504;54.806;9.640;2023-02-21T01:32:34;6.50;72.30
71668;DHT22;59504;54.806;9.640;2023-02-21T01:34:54;6.40;72.20
71668;DHT22;59504;54.806;9.640;2023-02-21T01:37:13;6.50;72.30
71668;DHT22;59504;54.806;9.640;2023-02-21T01:39:32;6.50;72.30
71668;DHT22;59504;54.806;9.640;2023-02-21T01:41:53;6.50;72.30
71668;DHT22;59504;54.806;9.640;2023-02-21T01:44:39;6.50;72.20
71668;DHT22;59504;54.806;9.640;2023-02-21T01:46:58;6.50;72.10
71668;DHT22;59504;54.806;9.640;2023-02-21T01:49:18;6.50;71.90
71668;DHT22;59504;54.806;9.640;2023-02-21T01:51:41;6.40;71.70
71668;DHT22;59504;54.806;9.640;2023-02-21T01:54:03;6.50;72.00
71668;DHT22;59504;54.806;9.640;2023-02-21T01:56:23;6.40;71.70
71668;DHT22;59504;54.806;9.640;2023-02-21T01:58:44;6.50;72.00
71668;DHT22;59504;54.806;9.640;2023-02-21T02:01:05;6.40;71.90
71668;DHT22;59504;54.806;9.640;2023-02-21T02:03:25;6.50;71.90
71668;DHT22;59504;54.806;9.640;2023-02-21T02:05:48;6.40;71.80
71668;DHT22;59504;54.806;9.640;2023-02-21T02:08:07;6.40;71.70
71668;DHT22;59504;54.806;9.640;2023-02-21T02:10:27;6.50;71.70
71668;DHT22;59504;54.806;9.640;2023-02-21T02:13:25;6.50;71.70
71668;DHT22;59504;54.806;9.640;2023-02-21T02:18:57;6.40;71.30
71668;DHT22;59504;54.806;9.640;2023-02-21T02:21:31;6.40;71.20
71668;DHT22;59504;54.806;9.640;2023-02-21T02:40:26;6.40;71.40
71668;DHT22;59504;54.806;9.640;2023-02-21T02:42:57;6.40;70.70
71668;DHT22;59504;54.806;9.640;2023-02-21T02:45:22;6.40;70.60
71668;DHT22;59504;54.806;9.640;2023-02-21T02:47:30;6.40;70.60
71668;DHT22;59504;54.806;9.640;2023-02-21T02:49:35;6.40;70.60
71668;DHT22;59504;54.806;9.640;2023-02-21T02:51:38;6.50;70.60
71668;DHT22;59504;54.806;9.640;2023-02-21T02:53:39;6.50;70.60
71668;DHT22;59504;54.806;9.640;2023-02-21T02:55:52;6.50;70.60
71668;DHT22;59504;54.806;9.640;2023-02-21T02:57:54;6.50;70.70
71668;DHT22;59504;54.806;9.640;2023-02-21T02:59:55;6.50;70.60
71668;DHT22;59504;54.806;9.640;2023-02-21T03:04:43;6.50;70.60
71668;DHT22;59504;54.806;9.640;2023-02-21T03:07:06;6.50;70.60
71668;DHT22;59504;54.806;9.640;2023-02-21T03:09:22;6.50;70.60
71668;DHT22;59504;54.806;9.640;2023-02-21T03:11:25;6.60;70.70
71668;DHT22;59504;54.806;9.640;2023-02-21T03:13:42;6.50;70.60
71668;DHT22;59504;54.806;9.640;2023-02-21T03:18:33;6.50;70.60
71668;DHT22;59504;54.806;9.640;2023-02-21T03:20:37;6.40;70.60
71668;DHT22;59504;54.806;9.640;2023-02-21T03:22:39;6.50;70.60
71668;DHT22;59504;54.806;9.640;2023-02-21T03:24:44;6.50;70.50
71668;DHT22;59504;54.806;9.640;2023-02-21T03:26:48;6.40;70.40
71668;DHT22;59504;54.806;9.640;2023-02-21T03:28:51;6.50;70.60
71668;DHT22;59504;54.806;9.640;2023-02-21T03:30:55;6.60;70.70
71668;DHT22;59504;54.806;9.640;2023-02-21T03:32:57;6.50;70.70
71668;DHT22;59504;54.806;9.640;2023-02-21T03:34:58;6.40;70.70
71668;DHT22;59504;54.806;9.640;2023-02-21T03:37:00;6.50;70.90
71668;DHT22;59504;54.806;9.640;2023-02-21T03:39:01;6.50;70.90
71668;DHT22;59504;54.806;9.640;2023-02-21T03:41:02;6.50;71.00
71668;DHT22;59504;54.806;9.640;2023-02-21T03:43:04;6.40;71.00
71668;DHT22;59504;54.806;9.640;2023-02-21T03:45:08;6.40;71.00
71668;DHT22;59504;54.806;9.640;2023-02-21T03:47:09;6.40;71.10
71668;DHT22;59504;54.806;9.640;2023-02-21T03:49:10;6.50;71.20
71668;DHT22;59504;54.806;9.640;2023-02-21T03:51:11;6.50;71.30
71668;DHT22;59504;54.806;9.640;2023-02-21T03:53:12;6.50;71.40
71668;DHT22;59504;54.806;9.640;2023-02-21T03:55:15;6.50;71.40
71668;DHT22;59504;54.806;9.640;2023-02-21T03:57:16;6.40;71.40
71668;DHT22;59504;54.806;9.640;2023-02-21T03:59:17;6.50;71.50
71668;DHT22;59504;54.806;9.640;2023-02-21T04:01:18;6.50;71.40
71668;DHT22;59504;54.806;9.640;2023-02-21T04:03:20;6.30;71.30
71668;DHT22;59504;54.806;9.640;2023-02-21T04:05:20;6.40;71.50
71668;DHT22;59504;54.806;9.640;2023-02-21T04:07:21;6.30;71.50
71668;DHT22;59504;54.806;9.640;2023-02-21T04:09:22;6.30;71.60
71668;DHT22;59504;54.806;9.640;2023-02-21T04:11:22;6.40;71.70
71668;DHT22;59504;54.806;9.640;2023-02-21T04:13:43;6.20;71.70
71668;DHT22;59504;54.806;9.640;2023-02-21T04:16:04;6.30;71.70
71668;DHT22;59504;54.806;9.640;2023-02-21T04:18:24;6.30;71.80
71668;DHT22;59504;54.806;9.640;2023-02-21T04:20:45;6.30;71.60
71668;DHT22;59504;54.806;9.640;2023-02-21T04:23:06;6.40;71.70
71668;DHT22;59504;54.806;9.640;2023-02-21T04:25:27;6.40;71.70
71668;DHT22;59504;54.806;9.640;2023-02-21T04:27:47;6.40;71.70
71668;DHT22;59504;54.806;9.640;2023-02-21T04:30:09;6.30;71.70
71668;DHT22;59504;54.806;9.640;2023-02-21T04:32:29;6.30;71.70
71668;DHT22;59504;54.806;9.640;2023-02-21T04:34:50;6.40;71.70
71668;DHT22;59504;54.806;9.640;2023-02-21T04:37:11;6.40;71.70
71668;DHT22;59504;54.806;9.640;2023-02-21T04:39:31;6.40;72.50
71668;DHT22;59504;54.806;9.640;2023-02-21T04:41:52;6.40;71.70
71668;DHT22;59504;54.806;9.640;2023-02-21T04:44:13;6.40;71.70
71668;DHT22;59504;54.806;9.640;2023-02-21T04:46:33;6.30;71.70
71668;DHT22;59504;54.806;9.640;2023-02-21T04:48:54;6.40;72.50
71668;DHT22;59504;54.806;9.640;2023-02-21T04:51:17;6.40;71.90
71668;DHT22;59504;54.806;9.640;2023-02-21T04:53:38;6.40;71.90
71668;DHT22;59504;54.806;9.640;2023-02-21T04:55:59;6.30;71.80
71668;DHT22;59504;54.806;9.640;2023-02-21T04:58:19;6.40;71.90
71668;DHT22;59504;54.806;9.640;2023-02-21T05:00:40;6.30;71.90
71668;DHT22;59504;54.806;9.640;2023-02-21T05:02:43;6.30;72.10
71668;DHT22;59504;54.806;9.640;2023-02-21T05:04:44;6.40;72.10
71668;DHT22;59504;54.806;9.640;2023-02-21T05:06:45;6.30;72.10
71668;DHT22;59504;54.806;9.640;2023-02-21T05:08:46;6.20;72.10
71668;DHT22;59504;54.806;9.640;2023-02-21T05:10:47;6.30;72.30
71668;DHT22;59504;54.806;9.640;2023-02-21T05:12:50;6.30;72.40
71668;DHT22;59504;54.806;9.640;2023-02-21T05:14:50;6.40;72.50
71668;DHT22;59504;54.806;9.640;2023-02-21T05:16:51;6.40;72.60
71668;DHT22;59504;54.806;9.640;2023-02-21T05:18:52;6.40;72.70
71668;DHT22;59504;54.806;9.640;2023-02-21T05:20:53;6.30;73.40
71668;DHT22;59504;54.806;9.640;2023-02-21T05:22:53;6.30;72.70
71668;DHT22;59504;54.806;9.640;2023-02-21T05:24:54;6.40;72.70
71668;DHT22;59504;54.806;9.640;2023-02-21T05:26:56;6.40;72.70
71668;DHT22;59504;54.806;9.640;2023-02-21T05:28:58;6.30;72.70
71668;DHT22;59504;54.806;9.640;2023-02-21T05:30:59;6.30;72.70
71668;DHT22;59504;54.806;9.640;2023-02-21T05:33:00;6.40;72.60
71668;DHT22;59504;54.806;9.640;2023-02-21T05:35:04;6.30;72.60
71668;DHT22;59504;54.806;9.640;2023-02-21T05:37:04;6.40;72.60
71668;DHT22;59504;54.806;9.640;2023-02-21T05:39:06;6.30;72.60
71668;DHT22;59504;54.806;9.640;2023-02-21T05:41:07;6.30;72.60
71668;DHT22;59504;54.806;9.640;2023-02-21T05:43:08;6.30;72.70
71668;DHT22;59504;54.806;9.640;2023-02-21T05:45:10;6.30;72.70
71668;DHT22;59504;54.806;9.640;2023-02-21T05:47:12;6.40;72.80
71668;DHT22;59504;54.806;9.640;2023-02-21T05:49:12;6.30;72.80
71668;DHT22;59504;54.806;9.640;2023-02-21T05:51:14;6.50;73.00
71668;DHT22;59504;54.806;9.640;2023-02-21T05:53:15;6.30;73.00
71668;DHT22;59504;54.806;9.640;2023-02-21T05:55:16;6.40;72.90
71668;DHT22;59504;54.806;9.640;2023-02-21T05:57:18;6.40;72.90
71668;DHT22;59504;54.806;9.640;2023-02-21T05:59:20;6.50;73.00
71668;DHT22;59504;54.806;9.640;2023-02-21T06:01:21;6.40;72.50
71668;DHT22;59504;54.806;9.640;2023-02-21T06:03:24;6.50;72.80
71668;DHT22;59504;54.806;9.640;2023-02-21T06:05:25;6.50;72.80
71668;DHT22;59504;54.806;9.640;2023-02-21T06:07:26;6.40;72.70
71668;DHT22;59504;54.806;9.640;2023-02-21T06:09:27;6.50;72.70
71668;DHT22;59504;54.806;9.640;2023-02-21T06:11:32;6.50;72.60
71668;DHT22;59504;54.806;9.640;2023-02-21T06:13:33;6.50;72.60
71668;DHT22;59504;54.806;9.640;2023-02-21T06:15:34;6.50;72.60
71668;DHT22;59504;54.806;9.640;2023-02-21T06:17:38;6.50;72.50
71668;DHT22;59504;54.806;9.640;2023-02-21T06:19:39;6.50;72.60
71668;DHT22;59504;54.806;9.640;2023-02-21T06:21:39;6.40;72.50
71668;DHT22;59504;54.806;9.640;2023-02-21T06:23:41;6.50;72.70
71668;DHT22;59504;54.806;9.640;2023-02-21T06:25:42;6.40;72.80
71668;DHT22;59504;54.806;9.640;2023-02-21T06:27:42;6.40;72.90
71668;DHT22;59504;54.806;9.640;2023-02-21T06:29:43;6.40;73.00
71668;DHT22;59504;54.806;9.640;2023-02-21T06:31:44;6.30;73.00
71668;DHT22;59504;54.806;9.640;2023-02-21T06:33:46;6.30;73.00
71668;DHT22;59504;54.806;9.640;2023-02-21T06:35:47;6.40;73.20
71668;DHT22;59504;54.806;9.640;2023-02-21T06:37:48;6.30;73.20
71668;DHT22;59504;54.806;9.640;2023-02-21T06:39:48;6.30;73.30
71668;DHT22;59504;54.806;9.640;2023-02-21T06:41:49;6.40;74.10
71668;DHT22;59504;54.806;9.640;2023-02-21T06:43:51;6.40;73.50
71668;DHT22;59504;54.806;9.640;2023-02-21T06:45:52;6.40;73.50
71668;DHT22;59504;54.806;9.640;2023-02-21T06:47:53;6.30;73.40
71668;DHT22;59504;54.806;9.640;2023-02-21T06:49:54;6.20;73.40
71668;DHT22;59504;54.806;9.640;2023-02-21T06:51:56;6.30;73.40
71668;DHT22;59504;54.806;9.640;2023-02-21T06:53:57;6.30;73.50
71668;DHT22;59504;54.806;9.640;2023-02-21T06:55:58;6.20;73.40
71668;DHT22;59504;54.806;9.640;2023-02-21T06:57:59;6.30;73.50
71668;DHT22;59504;54.806;9.640;2023-02-21T06:59:59;6.30;73.50
71668;DHT22;59504;54.806;9.640;2023-02-21T07:02:01;6.20;73.50
71668;DHT22;59504;54.806;9.640;2023-02-21T07:04:02;6.30;73.70
71668;DHT22;59504;54.806;9.640;2023-02-21T07:06:03;6.30;73.90
71668;DHT22;59504;54.806;9.640;2023-02-21T07:08:04;6.30;74.00
71668;DHT22;59504;54.806;9.640;2023-02-21T07:10:05;6.20;74.20
71668;DHT22;59504;54.806;9.640;2023-02-21T07:12:06;6.30;74.20
71668;DHT22;59504;54.806;9.640;2023-02-21T07:14:09;6.30;74.30
71668;DHT22;59504;54.806;9.640;2023-02-21T07:16:11;6.30;74.40
71668;DHT22;59504;54.806;9.640;2023-02-21T07:18:19;6.30;74.50
71668;DHT22;59504;54.806;9.640;2023-02-21T07:20:20;6.40;74.70
71668;DHT22;59504;54.806;9.640;2023-02-21T07:22:21;6.30;74.60
71668;DHT22;59504;54.806;9.640;2023-02-21T07:24:25;6.30;74.60
71668;DHT22;59504;54.806;9.640;2023-02-21T07:26:29;6.40;74.70
71668;DHT22;59504;54.806;9.640;2023-02-21T07:28:30;6.30;74.70
71668;DHT22;59504;54.806;9.640;2023-02-21T07:30:31;6.40;74.70
71668;DHT22;59504;54.806;9.640;2023-02-21T07:32:31;6.30;74.60
71668;DHT22;59504;54.806;9.640;2023-02-21T07:34:32;6.40;74.70
71668;DHT22;59504;54.806;9.640;2023-02-21T07:36:36;6.40;74.60
71668;DHT22;59504;54.806;9.640;2023-02-21T07:38:37;6.40;74.70
71668;DHT22;59504;54.806;9.640;2023-02-21T07:40:39;6.40;74.70
71668;DHT22;59504;54.806;9.640;2023-02-21T07:42:43;6.30;74.70
71668;DHT22;59504;54.806;9.640;2023-02-21T07:44:44;6.40;74.70
71668;DHT22;59504;54.806;9.640;2023-02-21T07:46:44;6.40;74.70
71668;DHT22;59504;54.806;9.640;2023-02-21T07:48:45;6.40;74.80
71668;DHT22;59504;54.806;9.640;2023-02-21T07:50:46;6.40;74.80
71668;DHT22;59504;54.806;9.640;2023-02-21T07:53:07;6.50;75.00
71668;DHT22;59504;54.806;9.640;2023-02-21T07:55:20;6.50;75.00
71668;DHT22;59504;54.806;9.640;2023-02-21T07:57:41;6.60;75.00
71668;DHT22;59504;54.806;9.640;2023-02-21T07:59:51;6.50;75.70
71668;DHT22;59504;54.806;9.640;2023-02-21T08:01:52;6.50;74.90
71668;DHT22;59504;54.806;9.640;2023-02-21T08:04:13;6.60;74.90
71668;DHT22;59504;54.806;9.640;2023-02-21T08:06:43;6.70;74.60
71668;DHT22;59504;54.806;9.640;2023-02-21T08:09:16;6.70;74.50
71668;DHT22;59504;54.806;9.640;2023-02-21T08:11:37;6.70;74.40
71668;DHT22;59504;54.806;9.640;2023-02-21T08:14:18;6.70;74.40
71668;DHT22;59504;54.806;9.640;2023-02-21T08:16:38;6.80;74.50
71668;DHT22;59504;54.806;9.640;2023-02-21T08:18:59;6.80;74.50
71668;DHT22;59504;54.806;9.640;2023-02-21T08:21:03;6.80;74.50
71668;DHT22;59504;54.806;9.640;2023-02-21T08:23:07;6.80;74.60
71668;DHT22;59504;54.806;9.640;2023-02-21T08:25:10;6.90;74.60
71668;DHT22;59504;54.806;9.640;2023-02-21T08:27:11;6.80;74.50
71668;DHT22;59504;54.806;9.640;2023-02-21T08:29:27;6.80;74.40
71668;DHT22;59504;54.806;9.640;2023-02-21T08:31:34;6.90;74.30
71668;DHT22;59504;54.806;9.640;2023-02-21T08:34:30;6.80;74.30
71668;DHT22;59504;54.806;9.640;2023-02-21T08:36:42;6.90;74.30
71668;DHT22;59504;54.806;9.640;2023-02-21T08:39:04;7.00;74.40
71668;DHT22;59504;54.806;9.640;2023-02-21T08:41:05;6.90;74.40
71668;DHT22;59504;54.806;9.640;2023-02-21T08:43:05;7.00;74.30
71668;DHT22;59504;54.806;9.640;2023-02-21T08:45:14;7.00;74.30
71668;DHT22;59504;54.806;9.640;2023-02-21T08:47:16;7.10;74.30
71668;DHT22;59504;54.806;9.640;2023-02-21T08:49:17;7.20;74.30
71668;DHT22;59504;54.806;9.640;2023-02-21T08:51:17;7.10;74.10
71668;DHT22;59504;54.806;9.640;2023-02-21T08:53:23;7.10;74.00
71668;DHT22;59504;54.806;9.640;2023-02-21T08:55:24;7.30;74.10
71668;DHT22;59504;54.806;9.640;2023-02-21T08:57:25;7.20;73.70
71668;DHT22;59504;54.806;9.640;2023-02-21T08:59:26;7.20;73.50
71668;DHT22;59504;54.806;9.640;2023-02-21T09:01:34;7.20;73.50
71668;DHT22;59504;54.806;9.640;2023-02-21T09:03:38;7.30;73.30
71668;DHT22;59504;54.806;9.640;2023-02-21T09:05:38;7.40;73.40
71668;DHT22;59504;54.806;9.640;2023-02-21T09:07:39;7.40;73.90
71668;DHT22;59504;54.806;9.640;2023-02-21T09:10:02;7.40;73.10
71668;DHT22;59504;54.806;9.640;2023-02-21T09:12:03;7.40;73.00
71668;DHT22;59504;54.806;9.640;2023-02-21T09:14:07;7.50;72.90
71668;DHT22;59504;54.806;9.640;2023-02-21T09:16:10;7.50;72.80
71668;DHT22;59504;54.806;9.640;2023-02-21T09:18:11;7.50;72.70
71668;DHT22;59504;54.806;9.640;2023-02-21T09:20:31;7.50;72.80
71668;DHT22;59504;54.806;9.640;2023-02-21T09:22:37;7.60;72.50
71668;DHT22;59504;54.806;9.640;2023-02-21T09:24:38;7.60;71.90
71668;DHT22;59504;54.806;9.640;2023-02-21T09:26:39;7.70;72.00
71668;DHT22;59504;54.806;9.640;2023-02-21T09:28:40;7.80;72.00
71668;DHT22;59504;54.806;9.640;2023-02-21T09:30:43;7.80;71.70
71668;DHT22;59504;54.806;9.640;2023-02-21T09:32:46;7.80;71.90
71668;DHT22;59504;54.806;9.640;2023-02-21T09:34:48;7.70;71.40
71668;DHT22;59504;54.806;9.640;2023-02-21T09:36:51;7.80;71.40
71668;DHT22;59504;54.806;9.640;2023-02-21T09:38:54;7.90;71.00
71668;DHT22;59504;54.806;9.640;2023-02-21T09:40:59;7.90;71.50
71668;DHT22;59504;54.806;9.640;2023-02-21T09:43:03;7.90;70.40
71668;DHT22;59504;54.806;9.640;2023-02-21T09:45:04;7.90;70.10
71668;DHT22;59504;54.806;9.640;2023-02-21T09:47:06;7.90;70.30
71668;DHT22;59504;54.806;9.640;2023-02-21T09:49:24;8.00;69.80
71668;DHT22;59504;54.806;9.640;2023-02-21T09:51:26;8.00;69.70
71668;DHT22;59504;54.806;9.640;2023-02-21T09:53:30;8.10;69.80
71668;DHT22;59504;54.806;9.640;2023-02-21T09:55:36;8.10;69.60
71668;DHT22;59504;54.806;9.640;2023-02-21T09:57:38;8.20;69.80
71668;DHT22;59504;54.806;9.640;2023-02-21T09:59:39;8.20;70.00
71668;DHT22;59504;54.806;9.640;2023-02-21T10:06:17;8.30;69.30
71668;DHT22;59504;54.806;9.640;2023-02-21T10:10:58;8.30;69.30
71668;DHT22;59504;54.806;9.640;2023-02-21T10:13:33;8.40;69.00
71668;DHT22;59504;54.806;9.640;2023-02-21T10:15:39;8.40;68.80
71668;DHT22;59504;54.806;9.640;2023-02-21T10:17:58;8.40;68.50
71668;DHT22;59504;54.806;9.640;2023-02-21T10:20:05;8.40;68.30
71668;DHT22;59504;54.806;9.640;2023-02-21T10:22:17;8.40;68.20
71668;DHT22;59504;54.806;9.640;2023-02-21T10:24:23;8.50;67.40
71668;DHT22;59504;54.806;9.640;2023-02-21T10:26:27;8.50;67.00
71668;DHT22;59504;54.806;9.640;2023-02-21T10:28:28;8.50;66.80
71668;DHT22;59504;54.806;9.640;2023-02-21T10:30:36;8.60;66.20
71668;DHT22;59504;54.806;9.640;2023-02-21T10:32:58;8.60;65.60
71668;DHT22;59504;54.806;9.640;2023-02-21T10:35:18;8.60;64.90
71668;DHT22;59504;54.806;9.640;2023-02-21T10:37:50;8.60;63.80
71668;DHT22;59504;54.806;9.640;2023-02-21T10:40:44;8.60;63.70
71668;DHT22;59504;54.806;9.640;2023-02-21T10:42:52;8.60;64.50
71668;DHT22;59504;54.806;9.640;2023-02-21T10:45:15;8.70;63.70
71668;DHT22;59504;54.806;9.640;2023-02-21T10:47:57;8.70;62.40
71668;DHT22;59504;54.806;9.640;2023-02-21T10:52:59;8.80;61.60
71668;DHT22;59504;54.806;9.640;2023-02-21T10:55:21;8.80;62.20
71668;DHT22;59504;54.806;9.640;2023-02-21T10:57:44;8.80;62.40
71668;DHT22;59504;54.806;9.640;2023-02-21T11:00:06;8.90;62.50
71668;DHT22;59504;54.806;9.640;2023-02-21T11:04:32;8.90;61.80
71668;DHT22;59504;54.806;9.640;2023-02-21T11:06:39;8.90;60.70
71668;DHT22;59504;54.806;9.640;2023-02-21T11:08:43;8.80;60.70
71668;DHT22;59504;54.806;9.640;2023-02-21T11:10:44;8.90;61.00
71668;DHT22;59504;54.806;9.640;2023-02-21T11:13:04;8.90;61.00
71668;DHT22;59504;54.806;9.640;2023-02-21T11:15:16;8.90;61.20
71668;DHT22;59504;54.806;9.640;2023-02-21T11:17:25;8.90;61.40
71668;DHT22;59504;54.806;9.640;2023-02-21T11:19:25;8.90;61.60
71668;DHT22;59504;54.806;9.640;2023-02-21T11:21:27;9.00;61.80
71668;DHT22;59504;54.806;9.640;2023-02-21T11:23:30;8.90;61.50
71668;DHT22;59504;54.806;9.640;2023-02-21T11:25:37;9.00;61.80
71668;DHT22;59504;54.806;9.640;2023-02-21T11:27:38;9.10;61.70
71668;DHT22;59504;54.806;9.640;2023-02-21T11:29:46;9.10;61.70
71668;DHT22;59504;54.806;9.640;2023-02-21T11:31:48;9.10;60.70
71668;DHT22;59504;54.806;9.640;2023-02-21T11:34:09;9.20;60.10
71668;DHT22;59504;54.806;9.640;2023-02-21T11:36:26;9.20;59.80
71668;DHT22;59504;54.806;9.640;2023-02-21T11:38:41;9.10;59.00
71668;DHT22;59504;54.806;9.640;2023-02-21T11:40:50;9.20;59.40
71668;DHT22;59504;54.806;9.640;2023-02-21T11:42:51;9.20;59.90
71668;DHT22;59504;54.806;9.640;2023-02-21T11:47:37;9.20;59.90
71668;DHT22;59504;54.806;9.640;2023-02-21T11:50:25;9.20;60.20
71668;DHT22;59504;54.806;9.640;2023-02-21T11:53:22;9.20;60.20
71668;DHT22;59504;54.806;9.640;2023-02-21T11:55:54;9.20;60.70
71668;DHT22;59504;54.806;9.640;2023-02-21T12:01:33;9.30;60.80
71668;DHT22;59504;54.806;9.640;2023-02-21T12:04:03;9.40;60.10
71668;DHT22;59504;54.806;9.640;2023-02-21T12:08:49;9.50;59.50
71668;DHT22;59504;54.806;9.640;2023-02-21T12:11:56;9.50;59.10
71668;DHT22;59504;54.806;9.640;2023-02-21T12:16:27;9.60;59.20
71668;DHT22;59504;54.806;9.640;2023-02-21T12:19:03;9.60;58.90
71668;DHT22;59504;54.806;9.640;2023-02-21T12:21:37;9.60;58.90
71668;DHT22;59504;54.806;9.640;2023-02-21T12:24:45;9.60;59.30
71668;DHT22;59504;54.806;9.640;2023-02-21T12:26:33;9.60;59.60
71668;DHT22;59504;54.806;9.640;2023-02-21T12:31:23;9.60;59.00
71668;DHT22;59504;54.806;9.640;2023-02-21T12:33:40;9.60;58.10
71668;DHT22;59504;54.806;9.640;2023-02-21T12:36:14;9.60;57.40
71668;DHT22;59504;54.806;9.640;2023-02-21T12:38:53;9.60;57.00
71668;DHT22;59504;54.806;9.640;2023-02-21T12:41:07;9.50;57.50
71668;DHT22;59504;54.806;9.640;2023-02-21T12:50:34;9.40;58.20
71668;DHT22;59504;54.806;9.640;2023-02-21T12:55:05;9.50;58.70
71668;DHT22;59504;54.806;9.640;2023-02-21T12:57:13;9.40;58.80
71668;DHT22;59504;54.806;9.640;2023-02-21T12:59:22;9.40;58.90
71668;DHT22;59504;54.806;9.640;2023-02-21T13:01:52;9.50;59.20
71668;DHT22;59504;54.806;9.640;2023-02-21T13:11:38;9.40;59.80
71668;DHT22;59504;54.806;9.640;2023-02-21T13:14:00;9.40;60.40
71668;DHT22;59504;54.806;9.640;2023-02-21T13:16:08;9.50;60.30
71668;DHT22;59504;54.806;9.640;2023-02-21T13:18:35;9.40;60.10
71668;DHT22;59504;54.806;9.640;2023-02-21T13:29:34;9.30;59.50
71668;DHT22;59504;54.806;9.640;2023-02-21T13:32:05;9.20;59.60
71668;DHT22;59504;54.806;9.640;2023-02-21T13:34:28;9.20;59.80
71668;DHT22;59504;54.806;9.640;2023-02-21T13:36:50;9.20;60.20
71668;DHT22;59504;54.806;9.640;2023-02-21T13:39:20;9.20;60.60
71668;DHT22;59504;54.806;9.640;2023-02-21T13:41:48;9.20;60.30
71668;DHT22;59504;54.806;9.640;2023-02-21T13:44:21;9.20;59.90
71668;DHT22;59504;54.806;9.640;2023-02-21T13:57:42;9.30;59.70
71668;DHT22;59504;54.806;9.640;2023-02-21T14:05:27;9.40;59.20
71668;DHT22;59504;54.806;9.640;2023-02-21T14:08:02;9.50;59.40
71668;DHT22;59504;54.806;9.640;2023-02-21T14:10:23;9.50;59.50
71668;DHT22;59504;54.806;9.640;2023-02-21T14:12:24;9.50;59.20
71668;DHT22;59504;54.806;9.640;2023-02-21T14:14:34;9.50;58.70
71668;DHT22;59504;54.806;9.640;2023-02-21T14:16:56;9.50;58.60
71668;DHT22;59504;54.806;9.640;2023-02-21T14:19:09;9.50;58.30
71668;DHT22;59504;54.806;9.640;2023-02-21T14:21:24;9.40;57.60
71668;DHT22;59504;54.806;9.640;2023-02-21T14:26:44;9.20;57.10
71668;DHT22;59504;54.806;9.640;2023-02-21T14:31:12;9.20;57.90
71668;DHT22;59504;54.806;9.640;2023-02-21T14:33:30;9.20;58.10
71668;DHT22;59504;54.806;9.640;2023-02-21T14:35:46;9.10;58.10
71668;DHT22;59504;54.806;9.640;2023-02-21T14:38:24;8.90;58.10
71668;DHT22;59504;54.806;9.640;2023-02-21T14:52:17;8.70;58.70
71668;DHT22;59504;54.806;9.640;2023-02-21T14:55:07;8.70;58.70
71668;DHT22;59504;54.806;9.640;2023-02-21T14:58:05;8.60;58.70
71668;DHT22;59504;54.806;9.640;2023-02-21T15:00:37;8.60;58.80
71668;DHT22;59504;54.806;9.640;2023-02-21T15:02:44;8.70;59.00
71668;DHT22;59504;54.806;9.640;2023-02-21T15:09:19;8.60;58.60
71668;DHT22;59504;54.806;9.640;2023-02-21T15:11:40;8.70;58.40
71668;DHT22;59504;54.806;9.640;2023-02-21T15:16:55;8.70;58.20
71668;DHT22;59504;54.806;9.640;2023-02-21T15:21:36;8.70;58.50
71668;DHT22;59504;54.806;9.640;2023-02-21T15:24:12;8.70;58.40
71668;DHT22;59504;54.806;9.640;2023-02-21T15:26:33;8.60;58.60
71668;DHT22;59504;54.806;9.640;2023-02-21T15:28:39;8.60;58.80
71668;DHT22;59504;54.806;9.640;2023-02-21T15:31:11;8.60;59.00
71668;DHT22;59504;54.806;9.640;2023-02-21T15:33:37;8.60;59.10
71668;DHT22;59504;54.806;9.640;2023-02-21T15:36:17;8.60;59.10
71668;DHT22;59504;54.806;9.640;2023-02-21T15:38:32;8.50;59.10
71668;DHT22;59504;54.806;9.640;2023-02-21T15:40:35;8.50;59.20
71668;DHT22;59504;54.806;9.640;2023-02-21T15:42:36;8.50;59.10
71668;DHT22;59504;54.806;9.640;2023-02-21T15:44:44;8.60;59.20
71668;DHT22;59504;54.806;9.640;2023-02-21T15:47:00;8.60;59.40
71668;DHT22;59504;54.806;9.640;2023-02-21T15:49:02;8.50;59.30
71668;DHT22;59504;54.806;9.640;2023-02-21T15:51:06;8.50;59.40
71668;DHT22;59504;54.806;9.640;2023-02-21T15:53:16;8.50;59.50
71668;DHT22;59504;54.806;9.640;2023-02-21T15:57:24;8.50;59.60
71668;DHT22;59504;54.806;9.640;2023-02-21T15:59:27;8.50;59.80
71668;DHT22;59504;54.806;9.640;2023-02-21T16:04:21;8.50;60.00
71668;DHT22;59504;54.806;9.640;2023-02-21T16:07:01;8.50;60.10
71668;DHT22;59504;54.806;9.640;2023-02-21T16:09:28;8.60;60.30
71668;DHT22;59504;54.806;9.640;2023-02-21T16:14:59;8.50;60.30
71668;DHT22;59504;54.806;9.640;2023-02-21T16:19:45;8.50;60.30